createdAt,value
2022-12-20T00:00:51.780Z,15.55
2022-12-20T00:03:20.228Z,16.27
2022-12-20T00:05:47.332Z,16.70
2022-12-20T00:08:14.621Z,16.08
2022-12-20T00:10:43.039Z,15.65
2022-12-20T00:13:10.179Z,15.18
2022-12-20T00:15:37.300Z,15.00
2022-12-20T00:18:04.560Z,14.93
2022-12-20T00:20:31.300Z,16.13
2022-12-20T00:22:58.343Z,16.55
2022-12-20T00:25:25.136Z,15.18
2022-12-20T00:27:52.299Z,16.58
2022-12-20T00:30:19.326Z,15.82
2022-12-20T00:32:46.434Z,15.60
2022-12-20T00:35:13.260Z,16.05
2022-12-20T00:37:40.336Z,15.40
2022-12-20T00:40:07.657Z,15.52
2022-12-20T00:42:34.688Z,15.27
2022-12-20T00:45:01.449Z,15.40
2022-12-20T00:47:28.503Z,14.82
2022-12-20T00:49:55.211Z,16.50
2022-12-20T00:52:22.395Z,15.40
2022-12-20T00:54:49.145Z,16.13
2022-12-20T00:57:16.148Z,16.02
2022-12-20T00:59:42.873Z,17.05
2022-12-20T01:02:10.115Z,16.08
2022-12-20T01:04:37.055Z,15.55
2022-12-20T01:07:04.342Z,17.30
2022-12-20T01:09:31.683Z,15.25
2022-12-20T01:11:58.680Z,16.05
2022-12-20T01:14:25.391Z,15.40
2022-12-20T01:16:52.519Z,15.15
2022-12-20T01:19:19.447Z,14.75
2022-12-20T01:21:46.831Z,14.65
2022-12-20T01:24:14.584Z,13.93
2022-12-20T01:26:41.772Z,14.63
2022-12-20T01:29:08.666Z,15.05
2022-12-20T01:31:35.812Z,14.85
2022-12-20T01:34:03.498Z,15.88
2022-12-20T01:36:32.053Z,14.93
2022-12-20T01:39:00.263Z,16.85
2022-12-20T01:41:27.888Z,15.10
2022-12-20T01:43:59.987Z,15.82
2022-12-20T01:46:28.901Z,14.23
2022-12-20T01:49:32.745Z,14.85
2022-12-20T01:51:59.749Z,15.38
2022-12-20T01:54:32.587Z,15.50
2022-12-20T01:57:05.157Z,14.07
2022-12-20T01:59:31.927Z,15.10
2022-12-20T02:01:59.371Z,14.07
2022-12-20T02:04:26.476Z,15.40
2022-12-20T02:06:53.538Z,15.70
2022-12-20T02:09:20.256Z,14.50
2022-12-20T02:12:17.806Z,15.70
2022-12-20T02:15:12.132Z,15.10
2022-12-20T02:17:51.373Z,15.10
2022-12-20T02:20:30.334Z,14.73
2022-12-20T02:23:19.396Z,14.65
2022-12-20T02:26:10.758Z,15.00
2022-12-20T02:28:55.167Z,14.80
2022-12-20T02:31:26.373Z,14.73
2022-12-20T02:33:53.729Z,15.05
2022-12-20T02:36:20.449Z,16.23
2022-12-20T02:38:47.464Z,13.90
2022-12-20T02:41:14.187Z,15.57
2022-12-20T02:44:01.297Z,15.70
2022-12-20T02:46:28.114Z,15.85
2022-12-20T02:49:00.114Z,16.33
2022-12-20T02:51:27.344Z,17.17
2022-12-20T02:53:54.400Z,17.17
2022-12-20T02:56:34.677Z,16.23
2022-12-20T02:59:23.493Z,15.48
2022-12-20T03:01:54.871Z,15.70
2022-12-20T03:04:27.025Z,16.20
2022-12-20T03:06:59.702Z,16.60
2022-12-20T03:09:27.049Z,17.38
2022-12-20T03:11:54.211Z,15.43
2022-12-20T03:14:21.533Z,15.63
2022-12-20T03:16:48.481Z,15.88
2022-12-20T03:19:15.681Z,15.80
2022-12-20T03:21:42.673Z,17.73
2022-12-20T03:24:11.178Z,16.23
2022-12-20T03:26:37.932Z,15.80
2022-12-20T03:29:05.041Z,15.80
2022-12-20T03:31:31.815Z,16.98
2022-12-20T03:33:58.877Z,16.45
2022-12-20T03:36:25.648Z,16.95
2022-12-20T03:38:53.306Z,16.58
2022-12-20T03:41:21.322Z,16.65
2022-12-20T03:43:48.976Z,16.00
2022-12-20T03:46:16.170Z,16.10
2022-12-20T03:48:43.596Z,17.15
2022-12-20T03:51:10.556Z,17.40
2022-12-20T03:53:37.622Z,17.00
2022-12-20T03:56:04.541Z,16.52
2022-12-20T03:58:31.585Z,18.75
2022-12-20T04:00:59.154Z,16.92
2022-12-20T04:03:26.329Z,15.73
2022-12-20T04:05:53.145Z,16.58
2022-12-20T04:08:20.230Z,16.63
2022-12-20T04:11:05.650Z,17.58
2022-12-20T04:16:00.955Z,17.17
2022-12-20T04:18:28.447Z,18.88
2022-12-20T04:20:55.449Z,17.13
2022-12-20T04:23:22.617Z,17.20
2022-12-20T04:25:49.349Z,15.90
2022-12-20T04:28:16.459Z,18.60
2022-12-20T04:30:43.225Z,18.63
2022-12-20T04:33:10.266Z,17.52
2022-12-20T04:35:37.708Z,17.35
2022-12-20T04:38:04.771Z,18.55
2022-12-20T04:40:31.551Z,17.77
2022-12-20T04:42:58.619Z,18.27
2022-12-20T04:45:25.377Z,18.98
2022-12-20T04:47:52.459Z,16.92
2022-12-20T04:50:19.294Z,18.05
2022-12-20T04:53:04.992Z,17.60
2022-12-20T04:55:32.089Z,17.95
2022-12-20T04:58:03.757Z,19.17
2022-12-20T05:00:34.341Z,18.13
2022-12-20T05:03:01.598Z,17.67
2022-12-20T05:05:28.494Z,17.42
2022-12-20T05:07:55.709Z,18.90
2022-12-20T05:10:22.523Z,19.35
2022-12-20T05:12:49.567Z,17.50
2022-12-20T05:15:16.433Z,19.45
2022-12-20T05:17:43.573Z,18.73
2022-12-20T05:20:10.899Z,17.77
2022-12-20T05:22:56.498Z,17.35
2022-12-20T05:25:41.813Z,19.75
2022-12-20T05:28:08.857Z,17.88
2022-12-20T05:30:35.588Z,18.63
2022-12-20T05:33:02.671Z,18.90
2022-12-20T05:35:29.430Z,17.67
2022-12-20T05:37:56.692Z,18.92
2022-12-20T05:40:23.512Z,18.73
2022-12-20T05:42:50.595Z,18.10
2022-12-20T05:45:17.321Z,18.70
2022-12-20T05:47:44.806Z,19.02
2022-12-20T05:50:18.366Z,19.35
2022-12-20T05:52:46.134Z,18.98
2022-12-20T05:55:13.828Z,18.55
2022-12-20T05:57:40.892Z,18.15
2022-12-20T06:00:08.297Z,19.92
2022-12-20T06:02:35.488Z,19.52
2022-12-20T06:05:02.888Z,18.75
2022-12-20T06:07:30.060Z,18.58
2022-12-20T06:09:56.849Z,18.92
2022-12-20T06:12:24.040Z,19.38
2022-12-20T06:14:51.179Z,17.60
2022-12-20T06:17:18.761Z,19.17
2022-12-20T06:19:45.699Z,21.20
2022-12-20T06:22:13.456Z,22.02
2022-12-20T06:24:45.984Z,28.40
2022-12-20T06:27:15.225Z,25.40
2022-12-20T06:29:42.003Z,24.25
2022-12-20T06:32:09.069Z,24.95
2022-12-20T06:34:35.895Z,26.27
2022-12-20T06:37:02.976Z,28.05
2022-12-20T06:39:29.711Z,28.95
2022-12-20T06:41:56.781Z,26.95
2022-12-20T06:44:23.545Z,30.02
2022-12-20T06:46:50.615Z,30.17
2022-12-20T06:49:17.377Z,29.60
2022-12-20T06:51:44.549Z,29.05
2022-12-20T06:54:11.289Z,28.55
2022-12-20T06:56:41.507Z,28.00
2022-12-20T06:59:08.614Z,27.08
2022-12-20T07:01:35.754Z,26.85
2022-12-20T07:04:02.660Z,26.40
2022-12-20T07:06:29.675Z,24.80
2022-12-20T07:08:56.474Z,27.92
2022-12-20T07:11:23.561Z,26.75
2022-12-20T07:13:56.255Z,24.55
2022-12-20T07:16:23.700Z,25.35
2022-12-20T07:18:52.581Z,25.02
2022-12-20T07:21:19.935Z,24.52
2022-12-20T07:23:47.669Z,23.08
2022-12-20T07:26:14.931Z,23.00
2022-12-20T07:28:42.250Z,24.13
2022-12-20T07:31:09.354Z,21.33
2022-12-20T07:33:37.320Z,21.65
2022-12-20T07:36:09.803Z,21.48
2022-12-20T07:38:37.039Z,21.60
2022-12-20T07:41:08.625Z,20.63
2022-12-20T07:43:35.523Z,21.80
2022-12-20T07:46:03.630Z,21.83
2022-12-20T07:48:30.430Z,22.25
2022-12-20T07:51:07.674Z,21.48
2022-12-20T07:53:35.133Z,22.23
2022-12-20T07:56:02.186Z,20.73
2022-12-20T07:58:29.210Z,19.13
2022-12-20T08:00:56.703Z,20.05
2022-12-20T08:03:26.265Z,20.58
2022-12-20T08:05:54.712Z,20.10
2022-12-20T08:08:22.188Z,19.77
2022-12-20T08:10:49.318Z,20.13
2022-12-20T08:13:16.134Z,19.45
2022-12-20T08:15:43.359Z,19.92
2022-12-20T08:18:10.097Z,20.65
2022-12-20T08:20:37.206Z,19.75
2022-12-20T08:23:04.547Z,18.90
2022-12-20T08:25:36.003Z,20.55
2022-12-20T08:28:08.033Z,19.95
2022-12-20T08:30:35.172Z,19.85
2022-12-20T08:33:01.927Z,20.65
2022-12-20T08:35:29.085Z,20.45
2022-12-20T08:37:56.884Z,20.73
2022-12-20T08:40:24.037Z,18.88
2022-12-20T08:42:50.800Z,18.95
2022-12-20T08:45:19.297Z,19.25
2022-12-20T08:47:46.060Z,18.42
2022-12-20T08:50:13.734Z,19.85
2022-12-20T08:52:40.567Z,20.77
2022-12-20T08:55:08.022Z,18.27
2022-12-20T08:57:35.317Z,18.80
2022-12-20T09:00:03.065Z,18.27
2022-12-20T09:02:29.990Z,17.33
2022-12-20T09:04:57.247Z,18.60
2022-12-20T09:07:23.983Z,18.67
2022-12-20T09:09:51.027Z,18.42
2022-12-20T09:12:17.787Z,17.80
2022-12-20T09:14:45.213Z,17.80
2022-12-20T09:17:12.478Z,17.40
2022-12-20T09:19:39.619Z,18.13
2022-12-20T09:22:06.390Z,16.88
2022-12-20T09:24:33.461Z,16.85
2022-12-20T09:27:00.248Z,16.50
2022-12-20T09:29:32.158Z,17.40
2022-12-20T09:32:02.179Z,17.02
2022-12-20T09:34:29.251Z,16.52
2022-12-20T09:36:56.027Z,16.83
2022-12-20T09:39:23.119Z,17.30
2022-12-20T09:41:49.901Z,17.30
2022-12-20T09:44:20.296Z,18.92
2022-12-20T09:46:53.995Z,18.50
2022-12-20T09:49:21.495Z,18.67
2022-12-20T09:52:07.022Z,20.08
2022-12-20T09:54:44.341Z,17.05
2022-12-20T09:57:45.405Z,19.52
2022-12-20T10:00:17.274Z,18.73
2022-12-20T10:02:58.729Z,18.85
2022-12-20T10:05:46.674Z,17.58
2022-12-20T10:08:25.745Z,17.55
2022-12-20T10:11:13.413Z,18.55
2022-12-20T10:13:55.583Z,18.45
2022-12-20T10:16:48.513Z,18.70
2022-12-20T10:19:54.442Z,17.58
2022-12-20T10:22:25.371Z,18.13
2022-12-20T10:25:07.514Z,18.67
2022-12-20T10:27:37.981Z,16.77
2022-12-20T10:30:18.340Z,18.10
2022-12-20T10:32:47.501Z,19.17
2022-12-20T10:35:31.420Z,18.38
2022-12-20T10:38:09.715Z,18.98
2022-12-20T10:43:54.965Z,17.55
2022-12-20T10:46:21.839Z,18.63
2022-12-20T10:48:49.461Z,17.88
2022-12-20T10:51:18.710Z,17.35
2022-12-20T10:53:55.010Z,17.02
2022-12-20T10:56:29.185Z,18.90
2022-12-20T10:59:04.229Z,16.83
2022-12-20T11:01:32.659Z,18.10
2022-12-20T11:04:05.474Z,18.30
2022-12-20T11:06:38.411Z,17.23
2022-12-20T11:09:14.657Z,19.15
2022-12-20T11:11:44.018Z,18.20
2022-12-20T11:14:15.227Z,19.95
2022-12-20T11:16:42.006Z,17.95
2022-12-20T11:19:38.201Z,17.88
2022-12-20T11:22:21.022Z,18.83
2022-12-20T11:25:03.242Z,18.70
2022-12-20T11:27:56.536Z,18.35
2022-12-20T11:30:25.076Z,17.65
2022-12-20T11:33:38.407Z,18.58
2022-12-20T11:36:17.526Z,18.27
2022-12-20T11:39:04.311Z,18.13
2022-12-20T11:41:49.169Z,17.27
2022-12-20T11:44:31.038Z,19.15
2022-12-20T11:47:17.112Z,17.83
2022-12-20T11:52:41.508Z,18.48
2022-12-20T11:55:08.258Z,19.10
2022-12-20T11:58:08.775Z,18.00
2022-12-20T12:00:26.444Z,18.85
2022-12-20T12:02:58.768Z,18.92
2022-12-20T12:05:36.705Z,17.60
2022-12-20T12:08:05.825Z,18.63
2022-12-20T12:10:36.119Z,19.88
2022-12-20T12:13:17.712Z,17.73
2022-12-20T12:16:03.491Z,18.42
2022-12-20T12:18:31.615Z,17.50
2022-12-20T12:21:21.144Z,17.80
2022-12-20T12:24:00.330Z,17.67
2022-12-20T12:26:30.906Z,18.85
2022-12-20T12:28:59.632Z,18.45
2022-12-20T12:31:29.267Z,18.20
2022-12-20T12:34:03.361Z,18.90
2022-12-20T12:36:42.282Z,19.75
2022-12-20T12:39:46.310Z,19.17
2022-12-20T12:42:45.832Z,19.85
2022-12-20T12:45:37.840Z,19.45
2022-12-20T12:48:14.278Z,19.92
2022-12-20T12:50:59.570Z,18.60
2022-12-20T12:53:30.066Z,18.27
2022-12-20T12:56:12.750Z,20.30
2022-12-20T12:58:48.720Z,19.92
2022-12-20T13:01:46.126Z,19.65
2022-12-20T13:04:21.931Z,19.67
2022-12-20T13:06:48.982Z,19.27
2022-12-20T13:09:22.455Z,19.55
2022-12-20T13:11:57.411Z,21.00
2022-12-20T13:14:27.690Z,21.00
2022-12-20T13:17:18.292Z,19.55
2022-12-20T13:19:54.286Z,19.88
2022-12-20T13:22:25.091Z,20.65
2022-12-20T13:24:56.456Z,19.77
2022-12-20T13:27:39.373Z,20.60
2022-12-20T13:30:12.426Z,19.60
2022-12-20T13:32:48.536Z,20.05
2022-12-20T13:35:24.683Z,19.30
2022-12-20T13:38:06.658Z,19.30
2022-12-20T13:40:48.129Z,20.30
2022-12-20T13:43:21.906Z,21.08
2022-12-20T13:45:51.281Z,21.85
2022-12-20T13:48:20.184Z,20.88
2022-12-20T13:50:52.366Z,19.98
2022-12-20T13:53:20.785Z,20.30
2022-12-20T13:55:48.852Z,21.30
2022-12-20T13:58:27.386Z,20.42
2022-12-20T14:00:54.550Z,19.42
2022-12-20T14:03:28.156Z,20.63
2022-12-20T14:06:02.451Z,21.33
2022-12-20T14:08:32.220Z,21.73
2022-12-20T14:11:18.726Z,20.48
2022-12-20T14:13:53.710Z,21.65
2022-12-20T14:16:20.824Z,21.25
2022-12-20T14:19:00.026Z,22.27
2022-12-20T14:21:26.817Z,20.67
2022-12-20T14:23:55.594Z,21.77
2022-12-20T14:26:27.564Z,19.73
2022-12-20T14:28:58.703Z,20.73
2022-12-20T14:31:34.578Z,19.40
2022-12-20T14:34:03.354Z,22.20
2022-12-20T14:36:31.756Z,21.45
2022-12-20T14:38:58.881Z,21.23
2022-12-20T14:41:43.815Z,20.92
2022-12-20T14:44:17.192Z,21.42
2022-12-20T14:46:49.258Z,21.40
2022-12-20T14:49:36.489Z,21.73
2022-12-20T14:52:12.210Z,20.58
2022-12-20T14:55:08.913Z,20.40
2022-12-20T14:57:36.552Z,20.08
2022-12-20T15:00:18.872Z,21.63
2022-12-20T15:02:46.067Z,21.52
2022-12-20T15:05:35.316Z,21.40
2022-12-20T15:08:12.131Z,19.95
2022-12-20T15:10:42.191Z,23.35
2022-12-20T15:13:14.127Z,22.40
2022-12-20T15:15:41.261Z,21.50
2022-12-20T15:18:15.279Z,21.08
2022-12-20T15:20:42.814Z,20.95
2022-12-20T15:23:14.627Z,22.52
2022-12-20T15:25:44.920Z,20.92
2022-12-20T15:28:14.184Z,22.00
2022-12-20T15:30:41.447Z,20.83
2022-12-20T15:33:11.890Z,21.75
2022-12-20T15:35:38.967Z,21.50
2022-12-20T15:38:05.826Z,21.95
2022-12-20T15:40:32.913Z,21.17
2022-12-20T15:42:59.717Z,21.95
2022-12-20T15:45:26.852Z,22.17
2022-12-20T15:47:54.798Z,22.65
2022-12-20T15:50:22.100Z,22.60
2022-12-20T15:52:48.917Z,23.52
2022-12-20T15:55:16.078Z,23.60
2022-12-20T15:57:42.980Z,23.30
2022-12-20T16:00:12.246Z,24.02
2022-12-20T16:02:39.261Z,24.55
2022-12-20T16:05:06.835Z,28.38
2022-12-20T16:07:33.579Z,24.23
2022-12-20T16:10:00.821Z,27.65
2022-12-20T16:12:30.366Z,27.38
2022-12-20T16:14:57.542Z,25.40
2022-12-20T16:17:24.322Z,25.45
2022-12-20T16:19:51.367Z,25.55
2022-12-20T16:22:20.421Z,24.50
2022-12-20T16:24:47.755Z,24.60
2022-12-20T16:27:14.561Z,25.65
2022-12-20T16:29:41.840Z,25.83
2022-12-20T16:32:15.737Z,26.52
2022-12-20T16:34:43.067Z,28.25
2022-12-20T16:37:11.402Z,28.70
2022-12-20T16:39:38.460Z,33.13
2022-12-20T16:42:13.037Z,37.97
2022-12-20T16:44:42.858Z,36.13
2022-12-20T16:47:09.975Z,37.75
2022-12-20T16:49:37.215Z,40.58
2022-12-20T16:52:05.487Z,41.85
2022-12-20T16:54:32.548Z,45.05
2022-12-20T16:56:59.395Z,43.40
2022-12-20T16:59:26.551Z,46.25
2022-12-20T17:01:55.272Z,44.17
2022-12-20T17:04:22.838Z,41.95
2022-12-20T17:06:49.818Z,42.03
2022-12-20T17:09:17.720Z,41.45
2022-12-20T17:11:45.188Z,38.20
2022-12-20T17:14:13.415Z,36.70
2022-12-20T17:16:41.038Z,36.47
2022-12-20T17:19:09.073Z,35.83
2022-12-20T17:24:27.499Z,34.80
2022-12-20T17:26:55.353Z,43.15
2022-12-20T17:29:22.470Z,46.70
2022-12-20T17:31:49.365Z,45.67
2022-12-20T17:34:20.084Z,70.60
2022-12-20T17:36:47.427Z,58.78
2022-12-20T17:39:14.548Z,56.80
2022-12-20T17:41:42.730Z,50.65
2022-12-20T17:44:23.831Z,51.03
2022-12-20T17:46:50.685Z,48.88
2022-12-20T17:49:17.918Z,49.58
2022-12-20T17:51:44.679Z,48.80
2022-12-20T17:54:19.465Z,48.75
2022-12-20T17:56:46.312Z,44.70
2022-12-20T17:59:13.768Z,41.92
2022-12-20T18:01:40.841Z,41.35
2022-12-20T18:04:09.464Z,38.92
2022-12-20T18:06:39.716Z,39.88
2022-12-20T18:09:10.633Z,39.47
2022-12-20T18:11:37.393Z,39.00
2022-12-20T18:14:04.469Z,37.53
2022-12-20T18:16:32.391Z,37.00
2022-12-20T18:18:59.494Z,40.40
2022-12-20T18:21:26.584Z,37.17
2022-12-20T18:23:53.960Z,37.45
2022-12-20T18:26:23.349Z,35.78
2022-12-20T18:28:51.506Z,34.97
2022-12-20T18:31:19.848Z,33.08
2022-12-20T18:33:51.081Z,35.28
2022-12-20T18:36:22.578Z,31.10
2022-12-20T18:38:49.976Z,32.05
2022-12-20T18:41:18.641Z,31.10
2022-12-20T18:43:45.819Z,31.35
2022-12-20T18:46:14.489Z,30.77
2022-12-20T18:48:41.798Z,30.52
2022-12-20T18:51:18.173Z,30.48
2022-12-20T18:53:47.026Z,27.50
2022-12-20T18:56:18.777Z,27.77
2022-12-20T18:58:47.163Z,27.65
2022-12-20T19:01:21.359Z,29.02
2022-12-20T19:03:50.267Z,28.35
2022-12-20T19:06:17.264Z,26.70
2022-12-20T19:08:44.421Z,26.13
2022-12-20T19:11:15.875Z,27.13
2022-12-20T19:13:43.167Z,25.80
2022-12-20T19:16:20.798Z,24.10
2022-12-20T19:18:48.153Z,23.40
2022-12-20T19:21:16.999Z,24.85
2022-12-20T19:23:44.999Z,25.27
2022-12-20T19:26:12.902Z,23.42
2022-12-20T19:28:40.427Z,23.08
2022-12-20T19:31:17.338Z,24.13
2022-12-20T19:33:48.319Z,20.98
2022-12-20T19:36:16.180Z,22.50
2022-12-20T19:38:53.275Z,22.45
2022-12-20T19:41:20.152Z,22.48
2022-12-20T19:43:47.529Z,21.17
2022-12-20T19:46:15.011Z,21.13
2022-12-20T19:48:42.111Z,23.10
2022-12-20T19:51:11.831Z,21.92
2022-12-20T19:53:39.459Z,22.65
2022-12-20T19:56:08.575Z,22.88
2022-12-20T19:58:36.437Z,23.33
2022-12-20T20:01:04.490Z,22.60
2022-12-20T20:03:32.604Z,23.08
2022-12-20T20:05:59.539Z,24.15
2022-12-20T20:08:26.702Z,23.42
2022-12-20T20:10:54.415Z,23.02
2022-12-20T20:13:21.592Z,21.60
2022-12-20T20:15:56.146Z,22.33
2022-12-20T20:18:23.439Z,22.10
2022-12-20T20:20:50.256Z,21.30
2022-12-20T20:23:17.319Z,21.95
2022-12-20T20:25:56.880Z,22.75
2022-12-20T20:28:31.303Z,21.98
2022-12-20T20:33:26.670Z,20.20
2022-12-20T20:35:58.199Z,21.33
2022-12-20T20:38:25.491Z,21.33
2022-12-20T20:40:52.388Z,20.50
2022-12-20T20:43:19.925Z,21.15
2022-12-20T20:45:46.856Z,21.75
2022-12-20T20:48:14.151Z,21.77
2022-12-20T20:50:41.464Z,21.38
2022-12-20T20:53:08.207Z,21.70
2022-12-20T20:55:35.611Z,23.50
2022-12-20T20:58:02.508Z,22.67
2022-12-20T21:00:31.898Z,21.15
2022-12-20T21:02:59.544Z,22.13
2022-12-20T21:08:15.533Z,21.45
2022-12-20T21:10:42.994Z,20.75
2022-12-20T21:13:09.875Z,22.77
2022-12-20T21:15:37.374Z,22.38
2022-12-20T21:18:04.271Z,21.58
2022-12-20T21:20:31.354Z,21.10
2022-12-20T21:22:58.350Z,23.33
2022-12-20T21:25:25.487Z,21.25
2022-12-20T21:27:52.282Z,22.98
2022-12-20T21:30:19.489Z,21.65
2022-12-20T21:32:46.266Z,22.10
2022-12-20T21:35:13.370Z,22.13
2022-12-20T21:37:40.125Z,21.52
2022-12-20T21:40:07.828Z,23.40
2022-12-20T21:42:34.878Z,22.67
2022-12-20T21:45:01.996Z,21.88
2022-12-20T21:47:28.792Z,23.10
2022-12-20T21:49:57.299Z,23.63
2022-12-20T21:52:24.094Z,21.58
2022-12-20T21:54:51.136Z,20.08
2022-12-20T21:57:17.895Z,22.70
2022-12-20T21:59:44.986Z,21.38
2022-12-20T22:02:11.958Z,23.00
2022-12-20T22:04:39.339Z,23.30
2022-12-20T22:07:06.068Z,23.67
2022-12-20T22:09:33.115Z,23.65
2022-12-20T22:11:59.856Z,21.50
2022-12-20T22:14:26.904Z,21.23
2022-12-20T22:16:55.316Z,22.60
2022-12-20T22:19:22.559Z,22.83
2022-12-20T22:21:55.639Z,22.92
2022-12-20T22:24:25.180Z,21.30
2022-12-20T22:26:51.966Z,21.88
2022-12-20T22:29:20.220Z,22.38
2022-12-20T22:31:47.154Z,22.00
2022-12-20T22:34:14.214Z,20.88
2022-12-20T22:36:40.991Z,23.90
2022-12-20T22:39:08.795Z,22.05
2022-12-20T22:41:35.798Z,21.13
2022-12-20T22:44:02.950Z,22.60
2022-12-20T22:49:17.820Z,21.30
2022-12-20T22:51:49.300Z,22.13
2022-12-20T22:54:26.424Z,21.58
2022-12-20T22:56:53.204Z,22.17
2022-12-20T22:59:20.463Z,21.63
2022-12-20T23:01:47.300Z,21.02
2022-12-20T23:04:14.503Z,22.50
2022-12-20T23:06:41.334Z,20.60
2022-12-20T23:09:08.374Z,21.83
2022-12-20T23:11:53.765Z,21.33
2022-12-20T23:14:40.694Z,21.42
2022-12-20T23:17:08.505Z,20.95
2022-12-20T23:19:54.172Z,20.25
2022-12-20T23:22:40.433Z,22.38
2022-12-20T23:25:15.537Z,19.83
2022-12-20T23:27:42.959Z,20.38
2022-12-20T23:30:12.471Z,20.77
2022-12-20T23:32:39.213Z,19.17
2022-12-20T23:35:12.262Z,20.35
2022-12-20T23:37:39.612Z,19.20
2022-12-20T23:40:09.707Z,19.90
2022-12-20T23:42:36.425Z,19.25
2022-12-20T23:45:03.691Z,19.48
2022-12-20T23:47:31.375Z,18.38
2022-12-20T23:49:58.426Z,18.45
2022-12-20T23:52:25.169Z,19.60
2022-12-20T23:54:52.283Z,16.67
2022-12-20T23:57:19.034Z,18.75
2022-12-20T23:59:46.056Z,17.23
